Time;durP1;ratioP1;P1;durP2;ratioP2;P2;SDS_P1;SDS_P2;PMS_P1;PMS_P2;Temp;Humidity;BMP_temperature;BMP_pressure;BME280_temperature;BME280_humidity;BME280_pressure;Samples;Min_cycle;Max_cycle;Signal;HPM_P1;HPM_P2
2022/04/08 00:01:14;;;;;;;;;;;24.10;35.30;;;;;;4876245;29;19978;-71
2022/04/08 00:03:41;;;;;;;;;;;24.10;35.30;;;;;;4905231;29;19931;-71
2022/04/08 00:06:08;;;;;;;;;;;24.10;35.30;;;;;;4893348;29;19935;-70
2022/04/08 00:08:35;;;;;;;;;;;24.10;35.30;;;;;;4891455;29;19951;-70
2022/04/08 00:11:02;;;;;;;;;;;24.10;35.30;;;;;;4892630;29;19932;-70
2022/04/08 00:13:29;;;;;;;;;;;24.10;35.30;;;;;;4892383;29;19933;-70
2022/04/08 00:15:56;;;;;;;;;;;24.10;35.30;;;;;;4892166;29;19928;-70
2022/04/08 00:18:23;;;;;;;;;;;24.10;35.20;;;;;;4892418;29;19983;-70
2022/04/08 00:20:50;;;;;;;;;;;24.10;35.20;;;;;;4892251;29;19928;-70
2022/04/08 00:23:17;;;;;;;;;;;24.10;35.20;;;;;;4892333;29;20009;-70
2022/04/08 00:25:45;;;;;;;;;;;24.10;35.20;;;;;;4891836;29;19928;-70
2022/04/08 00:28:12;;;;;;;;;;;24.10;35.20;;;;;;4886778;29;19928;-70
2022/04/08 00:30:39;;;;;;;;;;;24.10;35.20;;;;;;4892559;29;20147;-70
2022/04/08 00:33:06;;;;;;;;;;;24.10;35.20;;;;;;4891839;29;19928;-70
2022/04/08 00:35:33;;;;;;;;;;;24.10;35.20;;;;;;4891838;29;19928;-70
2022/04/08 00:38:00;;;;;;;;;;;24.10;35.20;;;;;;4891913;29;19927;-70
2022/04/08 00:40:27;;;;;;;;;;;24.10;35.20;;;;;;4906669;29;19939;-70
2022/04/08 00:42:54;;;;;;;;;;;24.10;35.70;;;;;;4891703;29;20389;-70
2022/04/08 00:45:21;;;;;;;;;;;24.10;35.20;;;;;;4892131;29;20316;-70
2022/04/08 00:47:48;;;;;;;;;;;24.00;35.20;;;;;;4891878;29;19928;-70
2022/04/08 00:50:15;;;;;;;;;;;24.10;35.20;;;;;;4891722;29;19979;-70
2022/04/08 00:52:44;;;;;;;;;;;24.00;35.20;;;;;;4890150;29;19928;-70
2022/04/08 00:55:12;;;;;;;;;;;24.00;35.20;;;;;;4891464;29;20149;-70
2022/04/08 00:57:39;;;;;;;;;;;24.00;35.20;;;;;;4890074;28;19935;-71
2022/04/08 01:00:08;;;;;;;;;;;24.00;35.20;;;;;;4889457;29;19982;-70
2022/04/08 01:02:37;;;;;;;;;;;24.00;35.20;;;;;;4905819;29;20050;-70
2022/04/08 01:05:04;;;;;;;;;;;24.00;35.20;;;;;;4891559;29;19974;-70
2022/04/08 01:07:31;;;;;;;;;;;24.00;35.20;;;;;;4891814;29;19928;-70
2022/04/08 01:09:58;;;;;;;;;;;24.00;35.20;;;;;;4891045;29;19927;-70
2022/04/08 01:12:25;;;;;;;;;;;24.00;35.20;;;;;;4891922;29;20045;-70
2022/04/08 01:14:56;;;;;;;;;;;24.00;35.20;;;;;;4890670;29;19927;-70
2022/04/08 01:17:23;;;;;;;;;;;24.00;35.20;;;;;;4891736;29;19927;-70
2022/04/08 01:19:50;;;;;;;;;;;24.00;35.20;;;;;;4891220;29;19982;-69
2022/04/08 01:22:20;;;;;;;;;;;24.00;35.70;;;;;;4891061;29;19927;-70
2022/04/08 01:24:48;;;;;;;;;;;24.00;35.10;;;;;;4891386;29;20617;-70
2022/04/08 01:27:17;;;;;;;;;;;24.00;35.10;;;;;;4892294;29;19982;-70
2022/04/08 01:29:45;;;;;;;;;;;24.00;35.20;;;;;;4889304;28;20012;-70
2022/04/08 01:32:12;;;;;;;;;;;24.00;35.20;;;;;;4889687;29;19958;-70
2022/04/08 01:34:39;;;;;;;;;;;24.00;35.20;;;;;;4891475;29;20034;-70
2022/04/08 01:37:06;;;;;;;;;;;24.00;35.20;;;;;;4891663;29;19928;-70
2022/04/08 01:39:33;;;;;;;;;;;24.00;35.20;;;;;;4890425;29;20191;-71
2022/04/08 01:42:00;;;;;;;;;;;24.00;35.20;;;;;;4890451;29;19943;-69
2022/04/08 01:44:27;;;;;;;;;;;24.00;35.20;;;;;;4890770;29;19967;-70
2022/04/08 01:46:54;;;;;;;;;;;24.00;35.20;;;;;;4890862;29;19931;-70
2022/04/08 01:49:21;;;;;;;;;;;24.00;35.30;;;;;;4891184;29;19932;-70
2022/04/08 01:51:48;;;;;;;;;;;24.00;35.30;;;;;;4891049;29;20030;-70
2022/04/08 01:54:16;;;;;;;;;;;23.90;35.20;;;;;;4890842;29;19932;-69
2022/04/08 01:56:42;;;;;;;;;;;24.00;35.30;;;;;;4891352;28;19928;-70
2022/04/08 01:59:09;;;;;;;;;;;24.00;35.30;;;;;;4905493;29;19928;-71
2022/04/08 02:01:36;;;;;;;;;;;23.90;35.20;;;;;;4887423;29;20135;-71
2022/04/08 02:04:04;;;;;;;;;;;24.00;35.20;;;;;;4890636;29;19959;-71
2022/04/08 02:06:31;;;;;;;;;;;24.00;35.70;;;;;;4891263;29;20466;-71
2022/04/08 02:08:58;;;;;;;;;;;24.00;35.10;;;;;;4890802;29;20215;-71
2022/04/08 02:11:25;;;;;;;;;;;24.00;35.10;;;;;;4890138;28;19939;-70
2022/04/08 02:13:52;;;;;;;;;;;24.00;35.10;;;;;;4891164;29;19951;-70
2022/04/08 02:16:19;;;;;;;;;;;24.00;35.10;;;;;;4905349;29;20017;-70
2022/04/08 02:18:47;;;;;;;;;;;24.00;35.10;;;;;;4891374;29;20038;-71
2022/04/08 02:21:19;;;;;;;;;;;24.00;35.10;;;;;;4921022;29;19927;-70
2022/04/08 02:23:46;;;;;;;;;;;24.00;35.10;;;;;;4890942;29;19928;-70
2022/04/08 02:26:16;;;;;;;;;;;24.00;35.10;;;;;;4892194;29;20045;-71
2022/04/08 02:28:43;;;;;;;;;;;24.00;35.10;;;;;;4893676;28;19927;-71
2022/04/08 02:31:11;;;;;;;;;;;23.90;35.10;;;;;;4894088;29;19927;-71
2022/04/08 02:33:38;;;;;;;;;;;23.90;35.10;;;;;;4889304;29;19931;-71
2022/04/08 02:36:05;;;;;;;;;;;23.90;35.20;;;;;;4894344;29;19927;-71
2022/04/08 02:38:32;;;;;;;;;;;23.90;35.20;;;;;;4893790;29;20424;-71
2022/04/08 02:40:59;;;;;;;;;;;23.90;35.20;;;;;;4893621;29;19932;-71
2022/04/08 02:43:26;;;;;;;;;;;23.90;35.20;;;;;;4894124;29;19959;-71
2022/04/08 02:45:53;;;;;;;;;;;23.90;35.20;;;;;;4893056;29;19986;-71
2022/04/08 02:48:20;;;;;;;;;;;23.90;35.20;;;;;;4894121;29;19958;-70
2022/04/08 02:50:47;;;;;;;;;;;23.90;35.20;;;;;;4893629;29;19931;-71
2022/04/08 02:53:14;;;;;;;;;;;23.90;35.20;;;;;;4893198;29;19928;-71
2022/04/08 02:55:41;;;;;;;;;;;23.90;35.20;;;;;;4893403;28;19931;-71
2022/04/08 02:58:08;;;;;;;;;;;23.90;35.20;;;;;;4893843;28;20587;-71
2022/04/08 03:00:35;;;;;;;;;;;23.90;35.20;;;;;;4893074;29;19928;-71
2022/04/08 03:03:02;;;;;;;;;;;23.90;35.20;;;;;;4893159;29;19957;-70
2022/04/08 03:05:29;;;;;;;;;;;23.90;35.20;;;;;;4888723;29;20315;-71
2022/04/08 03:07:56;;;;;;;;;;;23.90;35.20;;;;;;4893466;29;19958;-71
2022/04/08 03:10:23;;;;;;;;;;;23.90;35.20;;;;;;4892945;29;20035;-71
2022/04/08 03:12:50;;;;;;;;;;;23.90;35.20;;;;;;4893244;29;19927;-70
2022/04/08 03:15:18;;;;;;;;;;;23.90;35.20;;;;;;4892954;29;19963;-70
2022/04/08 03:17:45;;;;;;;;;;;23.90;35.30;;;;;;4892094;28;19927;-70
2022/04/08 03:20:12;;;;;;;;;;;23.90;35.30;;;;;;4892952;29;20165;-71
2022/04/08 03:22:39;;;;;;;;;;;23.90;35.30;;;;;;4893037;29;19927;-71
2022/04/08 03:25:06;;;;;;;;;;;23.90;35.30;;;;;;4893174;29;20148;-71
2022/04/08 03:27:33;;;;;;;;;;;23.90;35.40;;;;;;4907425;29;20235;-71
2022/04/08 03:30:01;;;;;;;;;;;23.80;35.30;;;;;;4892858;29;19927;-71
2022/04/08 03:32:28;;;;;;;;;;;23.80;35.30;;;;;;4893578;28;19935;-71
2022/04/08 03:34:57;;;;;;;;;;;23.80;35.30;;;;;;4892670;29;19985;-70
2022/04/08 03:37:25;;;;;;;;;;;23.80;35.30;;;;;;4887725;28;19934;-70
2022/04/08 03:39:53;;;;;;;;;;;23.80;35.40;;;;;;4874393;29;19983;-72
2022/04/08 03:42:20;;;;;;;;;;;23.80;35.30;;;;;;4874277;29;19935;-70
2022/04/08 03:44:49;;;;;;;;;;;23.80;35.30;;;;;;4892780;29;19958;-71
2022/04/08 03:47:16;;;;;;;;;;;23.80;35.30;;;;;;4903451;28;19982;-71
2022/04/08 03:49:43;;;;;;;;;;;23.80;35.40;;;;;;4891464;29;19928;-70
2022/04/08 03:52:10;;;;;;;;;;;23.80;35.30;;;;;;4891872;29;19985;-71
2022/04/08 03:54:37;;;;;;;;;;;23.80;35.30;;;;;;4892339;29;19927;-71
2022/04/08 03:57:04;;;;;;;;;;;23.80;35.30;;;;;;4892594;28;19936;-70
2022/04/08 03:59:37;;;;;;;;;;;23.80;35.30;;;;;;4918295;28;19935;-71
2022/04/08 04:02:05;;;;;;;;;;;23.80;35.30;;;;;;4892990;29;19958;-71
2022/04/08 04:04:33;;;;;;;;;;;23.80;35.30;;;;;;4892356;28;19927;-71
2022/04/08 04:07:00;;;;;;;;;;;23.80;35.20;;;;;;4892780;29;19931;-71
2022/04/08 04:09:27;;;;;;;;;;;23.80;35.20;;;;;;4887713;29;20236;-71
2022/04/08 04:11:54;;;;;;;;;;;23.80;35.20;;;;;;4892552;29;19927;-70
2022/04/08 04:14:21;;;;;;;;;;;23.90;35.30;;;;;;4892327;29;20372;-70
2022/04/08 04:16:48;;;;;;;;;;;23.90;35.20;;;;;;4892745;29;19928;-70
2022/04/08 04:19:15;;;;;;;;;;;23.90;35.30;;;;;;4892170;29;19974;-71
2022/04/08 04:21:42;;;;;;;;;;;23.90;35.20;;;;;;4892203;29;19932;-71
2022/04/08 04:24:09;;;;;;;;;;;23.90;35.20;;;;;;4891900;29;20400;-71
2022/04/08 04:26:36;;;;;;;;;;;23.90;35.20;;;;;;4892134;29;20561;-71
2022/04/08 04:29:03;;;;;;;;;;;23.90;35.20;;;;;;4892417;29;19935;-71
2022/04/08 04:31:30;;;;;;;;;;;23.90;35.20;;;;;;4892057;28;19990;-71
2022/04/08 04:33:57;;;;;;;;;;;23.90;35.20;;;;;;4891516;29;20200;-70
2022/04/08 04:36:24;;;;;;;;;;;23.90;35.20;;;;;;4891391;29;20538;-71
2022/04/08 04:38:51;;;;;;;;;;;23.90;35.10;;;;;;4888660;29;20419;-71
2022/04/08 04:41:18;;;;;;;;;;;23.90;35.10;;;;;;4887736;29;19927;-70
2022/04/08 04:43:45;;;;;;;;;;;23.90;35.10;;;;;;4889485;29;19928;-69
2022/04/08 04:46:12;;;;;;;;;;;23.90;35.10;;;;;;4890516;28;20208;-72
2022/04/08 04:48:39;;;;;;;;;;;23.90;35.10;;;;;;4890551;28;19967;-70
2022/04/08 04:51:06;;;;;;;;;;;23.90;35.10;;;;;;4894563;28;19932;-71
2022/04/08 04:53:33;;;;;;;;;;;23.90;35.00;;;;;;4910754;28;19928;-71
2022/04/08 04:56:00;;;;;;;;;;;24.00;35.10;;;;;;4895191;28;19928;-70
2022/04/08 04:58:27;;;;;;;;;;;24.00;35.00;;;;;;4890866;28;20140;-72
2022/04/08 05:00:54;;;;;;;;;;;24.00;35.00;;;;;;4891882;28;19953;-71
2022/04/08 05:03:21;;;;;;;;;;;24.00;35.00;;;;;;4891482;29;19931;-71
2022/04/08 05:05:48;;;;;;;;;;;24.00;35.00;;;;;;4891784;29;19932;-71
2022/04/08 05:08:16;;;;;;;;;;;24.00;35.00;;;;;;4889159;28;19939;-71
2022/04/08 05:10:43;;;;;;;;;;;24.00;35.00;;;;;;4906771;28;20462;-68
2022/04/08 05:16:42;;;;;;;;;;;24.10;34.90;;;;;;4903892;28;19922;-70
2022/04/08 05:19:09;;;;;;;;;;;24.20;34.80;;;;;;4910076;28;19923;-68
2022/04/08 05:21:36;;;;;;;;;;;24.20;34.70;;;;;;4901762;28;20384;-70
2022/04/08 05:24:03;;;;;;;;;;;24.30;34.70;;;;;;4906563;28;19928;-68
2022/04/08 05:26:30;;;;;;;;;;;24.30;34.60;;;;;;4893722;28;19932;-70
2022/04/08 05:28:57;;;;;;;;;;;24.30;34.50;;;;;;4904955;28;19957;-67
2022/04/08 05:31:24;;;;;;;;;;;24.30;34.40;;;;;;4912917;28;20047;-67
2022/04/08 05:34:28;;;;;;;;;;;24.40;34.50;;;;;;4898882;28;19927;-68
2022/04/08 05:37:42;;;;;;;;;;;24.50;34.40;;;;;;5064556;23;19940;-68
2022/04/08 05:40:10;;;;;;;;;;;24.60;34.20;;;;;;4943720;28;19932;-68
2022/04/08 05:42:39;;;;;;;;;;;24.70;34.10;;;;;;4990031;28;20413;-68
2022/04/08 05:45:07;;;;;;;;;;;24.70;35.30;;;;;;4977276;28;19927;-68
2022/04/08 05:51:02;;;;;;;;;;;24.90;34.50;;;;;;4958734;28;19933;-64
2022/04/08 05:56:32;;;;;;;;;;;25.00;34.00;;;;;;4990717;28;19926;-69
2022/04/08 05:58:59;;;;;;;;;;;25.10;33.90;;;;;;4976892;28;19926;-67
2022/04/08 06:01:27;;;;;;;;;;;25.10;33.80;;;;;;4979108;28;19948;-69
2022/04/08 06:03:54;;;;;;;;;;;25.10;33.80;;;;;;4980441;28;19926;-70
2022/04/08 06:07:08;;;;;;;;;;;25.20;33.80;;;;;;4992984;28;19926;-65
2022/04/08 06:10:21;;;;;;;;;;;25.20;33.70;;;;;;4954490;28;19930;-66
2022/04/08 06:16:11;;;;;;;;;;;25.30;33.30;;;;;;4956425;28;19922;-63
2022/04/08 06:18:38;;;;;;;;;;;25.30;33.60;;;;;;4953783;28;19980;-65
2022/04/08 06:21:05;;;;;;;;;;;25.30;33.60;;;;;;4949295;28;19929;-67
2022/04/08 06:23:32;;;;;;;;;;;25.40;33.70;;;;;;4946952;28;20000;-67
2022/04/08 06:26:00;;;;;;;;;;;25.40;33.60;;;;;;4940059;28;19938;-64
2022/04/08 06:28:27;;;;;;;;;;;25.50;33.60;;;;;;4940938;28;19930;-64
2022/04/08 06:30:54;;;;;;;;;;;25.60;33.60;;;;;;4955409;28;19938;-68
2022/04/08 06:33:21;;;;;;;;;;;25.60;33.50;;;;;;4955840;28;19930;-68
2022/04/08 06:35:48;;;;;;;;;;;25.70;33.50;;;;;;4939410;28;20467;-69
2022/04/08 06:38:16;;;;;;;;;;;25.70;34.60;;;;;;4953293;28;20525;-67
2022/04/08 06:40:43;;;;;;;;;;;25.80;34.20;;;;;;4936196;28;19984;-67
2022/04/08 06:43:10;;;;;;;;;;;25.80;34.10;;;;;;4954210;28;19934;-64
2022/04/08 06:45:37;;;;;;;;;;;25.80;34.30;;;;;;4952801;28;21236;-64
2022/04/08 06:48:05;;;;;;;;;;;25.90;34.20;;;;;;4953951;28;20060;-62
2022/04/08 06:53:25;;;;;;;;;;;25.90;34.10;;;;;;4947525;28;19941;-68
2022/04/08 06:55:52;;;;;;;;;;;25.90;34.20;;;;;;4951756;28;20011;-74
2022/04/08 06:58:19;;;;;;;;;;;25.90;33.90;;;;;;4955846;28;19965;-75
2022/04/08 07:00:46;;;;;;;;;;;25.90;34.00;;;;;;4972413;28;19934;-71
2022/04/08 07:03:17;;;;;;;;;;;26.00;33.90;;;;;;4938892;28;19934;-75
2022/04/08 07:05:44;;;;;;;;;;;26.00;33.70;;;;;;4957399;28;19992;-77
2022/04/08 07:08:11;;;;;;;;;;;26.00;33.60;;;;;;4940285;28;20018;-78
2022/04/08 07:10:41;;;;;;;;;;;25.90;33.40;;;;;;4952997;28;20032;-76
2022/04/08 07:13:08;;;;;;;;;;;25.90;33.80;;;;;;4953546;28;19993;-75
2022/04/08 07:15:36;;;;;;;;;;;25.90;33.70;;;;;;4940899;28;19962;-71
2022/04/08 07:18:04;;;;;;;;;;;25.90;33.60;;;;;;4948975;28;19942;-73
2022/04/08 07:20:31;;;;;;;;;;;25.90;33.50;;;;;;4947695;28;19927;-74
2022/04/08 07:23:01;;;;;;;;;;;25.90;34.30;;;;;;4949686;28;20012;-75
2022/04/08 07:25:29;;;;;;;;;;;25.90;34.30;;;;;;4957372;28;19930;-73
2022/04/08 07:27:59;;;;;;;;;;;25.90;34.10;;;;;;4950198;28;19957;-76
2022/04/08 07:30:26;;;;;;;;;;;25.90;34.40;;;;;;4957516;28;19973;-68
2022/04/08 07:32:54;;;;;;;;;;;25.90;34.60;;;;;;4957450;28;20531;-69
2022/04/08 07:35:23;;;;;;;;;;;26.00;34.90;;;;;;4936098;28;19930;-69
2022/04/08 07:37:50;;;;;;;;;;;26.00;34.90;;;;;;4948307;28;20350;-65
2022/04/08 07:40:19;;;;;;;;;;;26.00;35.10;;;;;;4957033;28;19927;-70
2022/04/08 07:42:46;;;;;;;;;;;26.00;35.30;;;;;;4952520;28;20520;-72
2022/04/08 07:45:13;;;;;;;;;;;26.00;35.20;;;;;;4950563;28;20357;-68
2022/04/08 07:47:41;;;;;;;;;;;26.00;35.10;;;;;;4950570;28;19942;-71
2022/04/08 07:50:10;;;;;;;;;;;26.00;35.10;;;;;;4952917;28;20461;-71
2022/04/08 07:52:38;;;;;;;;;;;26.00;35.10;;;;;;4945081;28;19935;-72
2022/04/08 07:55:09;;;;;;;;;;;26.00;35.10;;;;;;4938743;28;20035;-71
2022/04/08 07:57:46;;;;;;;;;;;26.00;35.20;;;;;;4945016;28;20847;-75
2022/04/08 08:00:14;;;;;;;;;;;26.00;35.30;;;;;;4951864;28;19942;-78
2022/04/08 08:05:53;;;;;;;;;;;26.10;35.40;;;;;;4946187;28;19977;-71
2022/04/08 08:08:20;;;;;;;;;;;26.10;35.40;;;;;;4934076;28;19935;-71
2022/04/08 08:10:47;;;;;;;;;;;26.10;35.10;;;;;;4947367;28;20637;-71
2022/04/08 08:13:14;;;;;;;;;;;26.10;34.90;;;;;;4936415;28;19934;-68
2022/04/08 08:15:42;;;;;;;;;;;26.20;35.10;;;;;;4947494;28;19938;-74
2022/04/08 08:18:09;;;;;;;;;;;26.20;35.00;;;;;;4948382;28;19926;-71
2022/04/08 08:20:37;;;;;;;;;;;26.20;34.90;;;;;;4935300;28;20567;-71
2022/04/08 08:23:09;;;;;;;;;;;26.20;34.90;;;;;;5017204;28;20509;-69
2022/04/08 08:25:36;;;;;;;;;;;26.30;34.70;;;;;;4932582;28;19938;-69
2022/04/08 08:28:05;;;;;;;;;;;26.30;34.90;;;;;;4948216;28;19934;-70
2022/04/08 08:30:32;;;;;;;;;;;26.40;34.70;;;;;;4938080;28;19929;-74
2022/04/08 08:32:59;;;;;;;;;;;26.50;34.20;;;;;;4937264;28;20317;-68
2022/04/08 08:35:27;;;;;;;;;;;26.50;34.60;;;;;;4949591;28;19934;-68
2022/04/08 08:38:00;;;;;;;;;;;26.50;34.70;;;;;;4954422;28;19934;-67
2022/04/08 08:40:29;;;;;;;;;;;26.50;33.80;;;;;;4951306;28;20268;-69
2022/04/08 08:42:56;;;;;;;;;;;26.60;34.10;;;;;;4935345;28;19972;-66
2022/04/08 08:45:22;;;;;;;;;;;26.60;33.90;;;;;;4948140;28;19931;-71
2022/04/08 08:47:52;;;;;;;;;;;26.60;33.80;;;;;;4956873;28;20025;-68
2022/04/08 08:50:19;;;;;;;;;;;26.60;34.10;;;;;;4954056;28;19922;-64
2022/04/08 08:52:53;;;;;;;;;;;26.60;33.90;;;;;;4952833;28;20017;-73
2022/04/08 08:55:20;;;;;;;;;;;26.70;34.50;;;;;;4947603;28;19934;-69
2022/04/08 08:57:48;;;;;;;;;;;26.70;34.00;;;;;;4951499;28;19959;-66
2022/04/08 09:00:17;;;;;;;;;;;26.70;34.20;;;;;;4948420;28;20031;-69
2022/04/08 09:02:48;;;;;;;;;;;26.80;34.10;;;;;;4958291;28;19926;-64
2022/04/08 09:05:19;;;;;;;;;;;26.80;34.20;;;;;;4963492;28;19941;-66
2022/04/08 09:07:54;;;;;;;;;;;26.80;33.70;;;;;;4975851;28;20021;-64
2022/04/08 09:14:03;;;;;;;;;;;26.80;33.60;;;;;;4978741;28;19929;-65
2022/04/08 09:16:36;;;;;;;;;;;26.80;33.60;;;;;;4976558;28;19926;-62
2022/04/08 09:19:10;;;;;;;;;;;26.90;33.40;;;;;;4978891;28;19957;-64
2022/04/08 09:21:37;;;;;;;;;;;26.90;33.10;;;;;;4963443;28;20013;-63
2022/04/08 09:24:05;;;;;;;;;;;26.90;33.60;;;;;;4976362;28;19936;-65
2022/04/08 09:26:35;;;;;;;;;;;27.00;33.20;;;;;;4976120;28;19988;-64
2022/04/08 09:29:03;;;;;;;;;;;27.00;33.00;;;;;;4975750;28;19926;-62
2022/04/08 09:31:32;;;;;;;;;;;27.00;32.70;;;;;;4973457;28;20479;-64
2022/04/08 09:34:13;;;;;;;;;;;27.10;32.60;;;;;;4958252;28;19930;-62
2022/04/08 09:36:40;;;;;;;;;;;27.10;33.20;;;;;;4947097;28;19942;-61
2022/04/08 09:39:10;;;;;;;;;;;27.10;32.90;;;;;;4955335;28;19930;-61
2022/04/08 09:41:49;;;;;;;;;;;27.20;32.80;;;;;;4959670;28;19962;-62
2022/04/08 09:44:22;;;;;;;;;;;27.20;32.60;;;;;;4958868;28;19937;-62
2022/04/08 09:46:49;;;;;;;;;;;27.20;32.70;;;;;;4924974;28;21293;-60
2022/04/08 09:49:18;;;;;;;;;;;27.30;33.30;;;;;;4958518;28;19933;-63
2022/04/08 09:51:49;;;;;;;;;;;27.30;33.00;;;;;;4956493;28;19938;-62
2022/04/08 09:54:19;;;;;;;;;;;27.30;32.80;;;;;;4959157;28;19934;-63
2022/04/08 09:56:46;;;;;;;;;;;27.30;32.80;;;;;;4948203;28;19986;-64
2022/04/08 09:59:15;;;;;;;;;;;27.30;32.60;;;;;;4956523;28;20004;-66
2022/04/08 10:02:02;;;;;;;;;;;27.30;32.90;;;;;;4950209;28;19968;-63
2022/04/08 10:04:30;;;;;;;;;;;27.30;33.10;;;;;;4959597;28;20601;-62
2022/04/08 10:06:58;;;;;;;;;;;27.20;33.10;;;;;;4959169;28;19938;-65
2022/04/08 10:09:27;;;;;;;;;;;27.10;33.10;;;;;;4944842;28;19996;-65
2022/04/08 10:12:02;;;;;;;;;;;27.00;33.20;;;;;;4962097;28;19930;-65
2022/04/08 10:14:49;;;;;;;;;;;26.90;33.30;;;;;;4959344;28;20041;-63
2022/04/08 10:17:17;;;;;;;;;;;26.80;33.30;;;;;;4955991;28;19930;-64
2022/04/08 10:19:44;;;;;;;;;;;26.80;33.30;;;;;;4957549;28;19927;-64
2022/04/08 10:22:19;;;;;;;;;;;26.70;33.30;;;;;;4943777;28;19934;-64
2022/04/08 10:24:53;;;;;;;;;;;26.70;33.30;;;;;;4960621;28;19981;-64
2022/04/08 10:27:28;;;;;;;;;;;26.80;33.30;;;;;;4956611;28;19939;-61
2022/04/08 10:29:55;;;;;;;;;;;26.80;33.00;;;;;;4963869;28;19992;-65
2022/04/08 10:32:22;;;;;;;;;;;26.80;33.10;;;;;;4961635;28;20026;-64
2022/04/08 10:34:50;;;;;;;;;;;26.90;33.70;;;;;;4945801;28;19984;-64
2022/04/08 10:37:24;;;;;;;;;;;26.90;33.10;;;;;;4940850;28;19933;-64
2022/04/08 10:39:57;;;;;;;;;;;26.90;33.20;;;;;;4959288;28;19968;-63
2022/04/08 10:42:24;;;;;;;;;;;26.90;33.10;;;;;;4956065;28;19934;-63
2022/04/08 10:44:51;;;;;;;;;;;26.90;33.10;;;;;;4954482;28;19935;-64
2022/04/08 10:47:21;;;;;;;;;;;26.90;33.00;;;;;;4958064;28;20075;-64
2022/04/08 10:49:53;;;;;;;;;;;27.00;32.90;;;;;;4958762;28;20136;-61
2022/04/08 10:52:24;;;;;;;;;;;27.00;32.80;;;;;;4958084;28;19934;-63
2022/04/08 10:55:02;;;;;;;;;;;27.00;33.10;;;;;;4955612;28;19992;-62
2022/04/08 10:57:34;;;;;;;;;;;27.00;33.10;;;;;;4939577;28;20401;-62
2022/04/08 11:00:03;;;;;;;;;;;26.90;33.20;;;;;;4958842;28;19930;-62
2022/04/08 11:02:34;;;;;;;;;;;26.90;33.00;;;;;;4953451;28;19965;-62
2022/04/08 11:05:05;;;;;;;;;;;26.90;33.10;;;;;;4954620;28;20290;-62
2022/04/08 11:07:35;;;;;;;;;;;26.90;33.10;;;;;;4957953;28;19929;-62
2022/04/08 11:10:03;;;;;;;;;;;26.80;33.30;;;;;;4954987;28;19937;-64
2022/04/08 11:12:31;;;;;;;;;;;26.80;33.40;;;;;;4968512;23;20397;-63
2022/04/08 11:14:58;;;;;;;;;;;26.80;33.20;;;;;;4951102;28;19941;-63
2022/04/08 11:17:35;;;;;;;;;;;26.80;33.40;;;;;;4950219;28;20339;-61
2022/04/08 11:20:04;;;;;;;;;;;26.80;33.50;;;;;;4951164;28;19926;-61
2022/04/08 11:22:43;;;;;;;;;;;26.80;33.50;;;;;;4950742;28;20598;-60
2022/04/08 11:25:11;;;;;;;;;;;26.90;33.60;;;;;;4928465;28;19937;-59
2022/04/08 11:27:41;;;;;;;;;;;26.90;33.80;;;;;;4952607;28;19931;-62
2022/04/08 11:30:08;;;;;;;;;;;26.90;33.70;;;;;;4949097;28;19930;-62
2022/04/08 11:32:39;;;;;;;;;;;26.90;33.70;;;;;;4949042;28;19984;-63
2022/04/08 11:35:11;;;;;;;;;;;26.90;33.90;;;;;;4945879;28;19930;-65
2022/04/08 11:37:38;;;;;;;;;;;26.90;33.60;;;;;;4950842;28;19988;-60
2022/04/08 11:40:05;;;;;;;;;;;26.90;33.70;;;;;;4946627;28;19980;-62
2022/04/08 11:42:32;;;;;;;;;;;26.90;33.70;;;;;;4948226;28;19988;-63
2022/04/08 11:44:59;;;;;;;;;;;26.90;33.80;;;;;;4956423;28;20347;-63
2022/04/08 11:47:31;;;;;;;;;;;26.80;33.80;;;;;;4951842;28;20333;-62
2022/04/08 11:50:02;;;;;;;;;;;26.80;33.70;;;;;;4948551;28;19953;-63
2022/04/08 11:52:29;;;;;;;;;;;26.80;33.90;;;;;;4956353;28;19934;-61
2022/04/08 11:55:02;;;;;;;;;;;26.80;33.90;;;;;;4953009;28;20030;-61
2022/04/08 11:57:44;;;;;;;;;;;26.80;33.70;;;;;;4938145;28;19949;-62
2022/04/08 12:00:11;;;;;;;;;;;26.80;33.90;;;;;;4950057;28;19935;-60
2022/04/08 12:02:39;;;;;;;;;;;26.80;33.90;;;;;;4939721;28;19934;-63
2022/04/08 12:05:07;;;;;;;;;;;26.80;34.00;;;;;;4951136;28;20017;-62
2022/04/08 12:07:51;;;;;;;;;;;26.70;33.90;;;;;;4951982;28;20025;-62
2022/04/08 12:10:20;;;;;;;;;;;26.70;33.90;;;;;;4953972;28;19957;-62
2022/04/08 12:12:47;;;;;;;;;;;26.70;33.90;;;;;;4956856;28;19984;-62
2022/04/08 12:15:15;;;;;;;;;;;26.60;33.90;;;;;;4959208;28;20362;-61
2022/04/08 12:17:45;;;;;;;;;;;26.60;34.00;;;;;;4952333;28;19930;-61
2022/04/08 12:20:16;;;;;;;;;;;26.60;34.10;;;;;;4956149;28;20037;-62
2022/04/08 12:22:47;;;;;;;;;;;26.50;34.00;;;;;;4952882;28;19926;-62
2022/04/08 12:25:17;;;;;;;;;;;26.50;34.00;;;;;;4954862;28;19949;-65
2022/04/08 12:27:52;;;;;;;;;;;26.50;34.00;;;;;;4956257;28;19930;-65
2022/04/08 12:30:36;;;;;;;;;;;26.50;34.00;;;;;;4950562;28;19930;-64
2022/04/08 12:33:03;;;;;;;;;;;26.50;34.30;;;;;;4953133;28;19942;-65
2022/04/08 12:35:30;;;;;;;;;;;26.50;34.40;;;;;;4947191;28;19985;-65
2022/04/08 12:37:59;;;;;;;;;;;26.50;34.60;;;;;;4947193;28;20008;-65
2022/04/08 12:40:26;;;;;;;;;;;26.50;34.80;;;;;;4952249;28;20029;-65
2022/04/08 12:42:53;;;;;;;;;;;26.50;35.00;;;;;;4956066;28;19950;-65
2022/04/08 12:45:21;;;;;;;;;;;26.50;35.10;;;;;;4952041;28;20021;-65
2022/04/08 12:47:48;;;;;;;;;;;26.50;35.40;;;;;;4957195;28;19969;-65
2022/04/08 12:50:14;;;;;;;;;;;26.50;35.50;;;;;;4948906;28;20013;-65
2022/04/08 12:52:41;;;;;;;;;;;26.50;35.30;;;;;;4952641;28;20278;-65
2022/04/08 12:55:13;;;;;;;;;;;26.60;35.20;;;;;;4954271;28;19932;-65
2022/04/08 12:57:41;;;;;;;;;;;26.60;35.00;;;;;;4958470;28;19926;-65
2022/04/08 13:00:24;;;;;;;;;;;26.60;35.00;;;;;;4946849;28;19926;-68
2022/04/08 13:02:52;;;;;;;;;;;26.60;35.60;;;;;;4953460;28;19941;-66
2022/04/08 13:05:20;;;;;;;;;;;26.70;35.70;;;;;;4948388;28;20380;-66
2022/04/08 13:07:47;;;;;;;;;;;26.70;35.50;;;;;;4949026;28;20308;-66
2022/04/08 13:10:14;;;;;;;;;;;26.70;35.30;;;;;;4944183;28;20008;-66
2022/04/08 13:12:41;;;;;;;;;;;26.70;35.10;;;;;;4944826;28;20017;-66
2022/04/08 13:15:08;;;;;;;;;;;26.70;34.90;;;;;;4927734;29;20004;-64
2022/04/08 13:17:36;;;;;;;;;;;26.70;35.00;;;;;;4944287;29;19926;-63
2022/04/08 13:20:04;;;;;;;;;;;26.80;36.00;;;;;;4944745;29;19980;-63
2022/04/08 13:22:31;;;;;;;;;;;26.80;36.70;;;;;;4944988;29;20388;-64
2022/04/08 13:24:58;;;;;;;;;;;26.80;37.40;;;;;;4944846;29;19926;-63
2022/04/08 13:27:25;;;;;;;;;;;26.80;37.00;;;;;;4944852;29;19970;-63
2022/04/08 13:29:52;;;;;;;;;;;26.80;36.00;;;;;;4944779;29;19966;-63
2022/04/08 13:32:19;;;;;;;;;;;26.80;35.40;;;;;;4944451;29;20013;-63
2022/04/08 13:34:47;;;;;;;;;;;26.80;35.10;;;;;;4944736;29;19972;-64
2022/04/08 13:37:14;;;;;;;;;;;26.80;34.90;;;;;;4943649;29;19926;-64
2022/04/08 13:39:42;;;;;;;;;;;26.80;34.80;;;;;;4944642;29;19984;-64
2022/04/08 13:42:10;;;;;;;;;;;26.80;34.60;;;;;;4940852;29;19962;-66
2022/04/08 13:44:37;;;;;;;;;;;26.80;34.50;;;;;;4944855;29;20083;-64
2022/04/08 13:47:04;;;;;;;;;;;26.80;34.50;;;;;;4944255;29;19980;-64
2022/04/08 13:49:32;;;;;;;;;;;26.80;34.40;;;;;;4944247;28;19933;-64
2022/04/08 13:51:59;;;;;;;;;;;26.90;34.90;;;;;;4944421;28;19930;-64
2022/04/08 13:54:26;;;;;;;;;;;26.90;34.30;;;;;;4944364;28;19992;-64
2022/04/08 13:56:53;;;;;;;;;;;26.80;34.20;;;;;;4944100;28;20037;-64
2022/04/08 13:59:20;;;;;;;;;;;26.80;34.20;;;;;;4944571;28;19927;-65
2022/04/08 14:01:47;;;;;;;;;;;26.80;34.20;;;;;;4943967;29;20366;-64
2022/04/08 14:04:15;;;;;;;;;;;26.80;34.20;;;;;;4944855;29;19957;-64
2022/04/08 14:06:42;;;;;;;;;;;26.80;34.20;;;;;;4943935;28;20079;-64
2022/04/08 14:09:09;;;;;;;;;;;26.80;34.20;;;;;;4944870;29;20302;-64
2022/04/08 14:11:37;;;;;;;;;;;26.80;34.20;;;;;;4942874;29;20362;-64
2022/04/08 14:14:04;;;;;;;;;;;26.80;34.30;;;;;;4941356;28;20029;-64
2022/04/08 14:16:31;;;;;;;;;;;26.80;34.30;;;;;;4944011;28;19977;-65
2022/04/08 14:18:58;;;;;;;;;;;26.70;34.20;;;;;;4943859;29;19927;-64
2022/04/08 14:21:25;;;;;;;;;;;26.70;34.20;;;;;;4944131;28;20112;-64
2022/04/08 14:23:52;;;;;;;;;;;26.70;34.30;;;;;;4947129;28;19970;-64
2022/04/08 14:26:19;;;;;;;;;;;26.70;34.20;;;;;;4947788;28;19988;-65
2022/04/08 14:28:46;;;;;;;;;;;26.70;34.20;;;;;;4947796;28;19927;-64
2022/04/08 14:31:13;;;;;;;;;;;26.60;34.10;;;;;;4946803;28;19961;-64
2022/04/08 14:33:41;;;;;;;;;;;26.60;34.20;;;;;;4947269;29;19974;-64
2022/04/08 14:36:11;;;;;;;;;;;26.60;34.10;;;;;;4947559;28;20440;-64
2022/04/08 14:38:38;;;;;;;;;;;26.60;34.10;;;;;;4945154;28;20421;-64
2022/04/08 14:41:07;;;;;;;;;;;26.60;34.00;;;;;;4947829;29;19927;-64
2022/04/08 14:43:34;;;;;;;;;;;26.50;34.00;;;;;;4946558;29;19961;-64
2022/04/08 14:46:02;;;;;;;;;;;26.50;34.00;;;;;;4943251;29;19927;-64
2022/04/08 14:48:29;;;;;;;;;;;26.50;34.00;;;;;;4947066;29;19931;-64